sensor_id;sensor_type;location;lat;lon;timestamp;P1;durP1;ratioP1;P2;durP2;ratioP2
64854;SDS011;51321;50.428;8.378;2023-02-15T00:00:22;17.30;;;10.63;;
64854;SDS011;51321;50.428;8.378;2023-02-15T00:03:04;16.58;;;11.80;;
64854;SDS011;51321;50.428;8.378;2023-02-15T00:05:50;17.75;;;11.30;;
64854;SDS011;51321;50.428;8.378;2023-02-15T00:08:34;15.88;;;10.77;;
64854;SDS011;51321;50.428;8.378;2023-02-15T00:11:18;16.70;;;10.35;;
64854;SDS011;51321;50.428;8.378;2023-02-15T00:14:20;21.73;;;11.85;;
64854;SDS011;51321;50.428;8.378;2023-02-15T00:17:02;19.50;;;12.32;;
64854;SDS011;51321;50.428;8.378;2023-02-15T00:19:46;16.77;;;10.60;;
64854;SDS011;51321;50.428;8.378;2023-02-15T00:22:27;18.15;;;11.80;;
64854;SDS011;51321;50.428;8.378;2023-02-15T00:25:08;17.13;;;11.20;;
64854;SDS011;51321;50.428;8.378;2023-02-15T00:27:49;18.35;;;10.80;;
64854;SDS011;51321;50.428;8.378;2023-02-15T00:33:16;20.52;;;11.10;;
64854;SDS011;51321;50.428;8.378;2023-02-15T00:35:57;15.73;;;10.10;;
64854;SDS011;51321;50.428;8.378;2023-02-15T00:38:41;17.23;;;10.57;;
64854;SDS011;51321;50.428;8.378;2023-02-15T00:41:23;16.10;;;9.52;;
64854;SDS011;51321;50.428;8.378;2023-02-15T00:44:04;15.02;;;9.43;;
64854;SDS011;51321;50.428;8.378;2023-02-15T00:49:29;18.03;;;10.37;;
64854;SDS011;51321;50.428;8.378;2023-02-15T00:52:11;16.02;;;9.90;;
64854;SDS011;51321;50.428;8.378;2023-02-15T00:54:52;14.68;;;9.52;;
64854;SDS011;51321;50.428;8.378;2023-02-15T00:57:35;15.68;;;9.77;;
64854;SDS011;51321;50.428;8.378;2023-02-15T01:00:19;17.10;;;10.25;;
64854;SDS011;51321;50.428;8.378;2023-02-15T01:03:01;16.60;;;10.07;;
64854;SDS011;51321;50.428;8.378;2023-02-15T01:05:42;14.85;;;9.45;;
64854;SDS011;51321;50.428;8.378;2023-02-15T01:08:26;15.95;;;9.60;;
64854;SDS011;51321;50.428;8.378;2023-02-15T01:11:12;16.92;;;10.57;;
64854;SDS011;51321;50.428;8.378;2023-02-15T01:14:01;14.60;;;9.43;;
64854;SDS011;51321;50.428;8.378;2023-02-15T01:16:44;15.80;;;10.50;;
64854;SDS011;51321;50.428;8.378;2023-02-15T01:19:28;15.45;;;9.10;;
64854;SDS011;51321;50.428;8.378;2023-02-15T01:24:49;13.82;;;8.50;;
64854;SDS011;51321;50.428;8.378;2023-02-15T01:27:32;17.08;;;10.70;;
64854;SDS011;51321;50.428;8.378;2023-02-15T01:30:16;17.13;;;10.68;;
64854;SDS011;51321;50.428;8.378;2023-02-15T01:33:01;17.38;;;10.73;;
64854;SDS011;51321;50.428;8.378;2023-02-15T01:35:45;18.85;;;11.00;;
64854;SDS011;51321;50.428;8.378;2023-02-15T01:41:10;20.02;;;11.23;;
64854;SDS011;51321;50.428;8.378;2023-02-15T01:44:40;19.58;;;10.80;;
64854;SDS011;51321;50.428;8.378;2023-02-15T01:47:24;17.75;;;11.00;;
64854;SDS011;51321;50.428;8.378;2023-02-15T01:50:12;19.67;;;11.38;;
64854;SDS011;51321;50.428;8.378;2023-02-15T01:53:01;19.20;;;11.35;;
64854;SDS011;51321;50.428;8.378;2023-02-15T01:55:52;18.95;;;10.43;;
64854;SDS011;51321;50.428;8.378;2023-02-15T01:58:35;22.25;;;12.02;;
64854;SDS011;51321;50.428;8.378;2023-02-15T02:01:19;16.60;;;10.48;;
64854;SDS011;51321;50.428;8.378;2023-02-15T02:04:13;17.35;;;10.38;;
64854;SDS011;51321;50.428;8.378;2023-02-15T02:06:57;16.75;;;10.63;;
64854;SDS011;51321;50.428;8.378;2023-02-15T02:09:40;19.15;;;10.05;;
64854;SDS011;51321;50.428;8.378;2023-02-15T02:12:21;18.13;;;10.90;;
64854;SDS011;51321;50.428;8.378;2023-02-15T02:15:04;19.33;;;11.13;;
64854;SDS011;51321;50.428;8.378;2023-02-15T02:17:54;16.00;;;10.15;;
64854;SDS011;51321;50.428;8.378;2023-02-15T02:30:36;14.30;;;8.88;;
64854;SDS011;51321;50.428;8.378;2023-02-15T02:33:38;13.05;;;8.63;;
64854;SDS011;51321;50.428;8.378;2023-02-15T02:36:30;14.88;;;8.73;;
64854;SDS011;51321;50.428;8.378;2023-02-15T02:39:28;12.73;;;8.37;;
64854;SDS011;51321;50.428;8.378;2023-02-15T02:42:14;12.50;;;8.87;;
64854;SDS011;51321;50.428;8.378;2023-02-15T02:47:53;16.88;;;9.85;;
64854;SDS011;51321;50.428;8.378;2023-02-15T02:50:43;20.05;;;10.88;;
64854;SDS011;51321;50.428;8.378;2023-02-15T02:53:28;16.38;;;9.80;;
64854;SDS011;51321;50.428;8.378;2023-02-15T02:56:16;15.93;;;9.10;;
64854;SDS011;51321;50.428;8.378;2023-02-15T02:59:03;12.43;;;7.63;;
64854;SDS011;51321;50.428;8.378;2023-02-15T03:01:53;14.48;;;9.02;;
64854;SDS011;51321;50.428;8.378;2023-02-15T03:04:39;14.45;;;9.05;;
64854;SDS011;51321;50.428;8.378;2023-02-15T03:10:26;14.13;;;8.95;;
64854;SDS011;51321;50.428;8.378;2023-02-15T03:13:10;12.68;;;7.97;;
64854;SDS011;51321;50.428;8.378;2023-02-15T03:15:51;14.68;;;8.60;;
64854;SDS011;51321;50.428;8.378;2023-02-15T03:18:51;11.55;;;7.80;;
64854;SDS011;51321;50.428;8.378;2023-02-15T03:21:47;13.27;;;8.77;;
64854;SDS011;51321;50.428;8.378;2023-02-15T03:24:37;14.52;;;8.52;;
64854;SDS011;51321;50.428;8.378;2023-02-15T03:27:22;16.58;;;9.65;;
64854;SDS011;51321;50.428;8.378;2023-02-15T03:30:07;12.95;;;8.18;;
64854;SDS011;51321;50.428;8.378;2023-02-15T03:32:55;14.50;;;8.75;;
64854;SDS011;51321;50.428;8.378;2023-02-15T03:35:43;16.02;;;9.35;;
64854;SDS011;51321;50.428;8.378;2023-02-15T03:38:34;15.65;;;9.40;;
64854;SDS011;51321;50.428;8.378;2023-02-15T03:41:25;17.20;;;10.75;;
64854;SDS011;51321;50.428;8.378;2023-02-15T03:44:13;14.88;;;9.07;;
64854;SDS011;51321;50.428;8.378;2023-02-15T03:47:10;14.90;;;8.68;;
64854;SDS011;51321;50.428;8.378;2023-02-15T03:49:55;18.13;;;9.63;;
64854;SDS011;51321;50.428;8.378;2023-02-15T03:52:42;14.75;;;9.05;;
64854;SDS011;51321;50.428;8.378;2023-02-15T03:55:23;18.02;;;10.65;;
64854;SDS011;51321;50.428;8.378;2023-02-15T03:58:05;15.52;;;9.13;;
64854;SDS011;51321;50.428;8.378;2023-02-15T04:01:09;16.52;;;9.80;;
64854;SDS011;51321;50.428;8.378;2023-02-15T04:04:17;14.88;;;9.48;;
64854;SDS011;51321;50.428;8.378;2023-02-15T04:07:00;12.73;;;8.55;;
64854;SDS011;51321;50.428;8.378;2023-02-15T04:09:43;13.27;;;8.38;;
64854;SDS011;51321;50.428;8.378;2023-02-15T04:12:42;15.07;;;8.50;;
64854;SDS011;51321;50.428;8.378;2023-02-15T04:15:28;15.50;;;9.13;;
64854;SDS011;51321;50.428;8.378;2023-02-15T04:18:26;17.58;;;10.18;;
64854;SDS011;51321;50.428;8.378;2023-02-15T04:21:25;11.27;;;7.88;;
64854;SDS011;51321;50.428;8.378;2023-02-15T04:24:26;16.65;;;8.70;;
64854;SDS011;51321;50.428;8.378;2023-02-15T04:27:24;14.40;;;8.57;;
64854;SDS011;51321;50.428;8.378;2023-02-15T04:30:12;17.00;;;9.43;;
64854;SDS011;51321;50.428;8.378;2023-02-15T04:32:59;13.85;;;8.68;;
64854;SDS011;51321;50.428;8.378;2023-02-15T04:35:40;14.65;;;8.93;;
64854;SDS011;51321;50.428;8.378;2023-02-15T04:38:24;13.43;;;7.60;;
64854;SDS011;51321;50.428;8.378;2023-02-15T04:41:05;14.18;;;8.57;;
64854;SDS011;51321;50.428;8.378;2023-02-15T04:43:47;11.63;;;7.35;;
64854;SDS011;51321;50.428;8.378;2023-02-15T04:46:32;12.85;;;8.02;;
64854;SDS011;51321;50.428;8.378;2023-02-15T04:49:20;13.70;;;8.75;;
64854;SDS011;51321;50.428;8.378;2023-02-15T04:52:02;12.82;;;8.30;;
64854;SDS011;51321;50.428;8.378;2023-02-15T04:54:44;13.40;;;8.85;;
64854;SDS011;51321;50.428;8.378;2023-02-15T04:57:26;12.15;;;7.57;;
64854;SDS011;51321;50.428;8.378;2023-02-15T05:00:07;11.00;;;6.80;;
64854;SDS011;51321;50.428;8.378;2023-02-15T05:02:54;10.45;;;6.70;;
64854;SDS011;51321;50.428;8.378;2023-02-15T05:05:42;10.27;;;6.53;;
64854;SDS011;51321;50.428;8.378;2023-02-15T05:08:23;12.75;;;7.00;;
64854;SDS011;51321;50.428;8.378;2023-02-15T05:11:08;10.80;;;6.68;;
64854;SDS011;51321;50.428;8.378;2023-02-15T05:13:49;11.18;;;7.65;;
64854;SDS011;51321;50.428;8.378;2023-02-15T05:16:33;11.45;;;7.63;;
64854;SDS011;51321;50.428;8.378;2023-02-15T05:19:15;11.75;;;8.27;;
64854;SDS011;51321;50.428;8.378;2023-02-15T05:21:58;13.82;;;8.80;;
64854;SDS011;51321;50.428;8.378;2023-02-15T05:24:39;17.63;;;8.60;;
64854;SDS011;51321;50.428;8.378;2023-02-15T05:27:39;14.85;;;9.15;;
64854;SDS011;51321;50.428;8.378;2023-02-15T05:30:38;16.27;;;9.00;;
64854;SDS011;51321;50.428;8.378;2023-02-15T05:33:22;14.25;;;8.75;;
64854;SDS011;51321;50.428;8.378;2023-02-15T05:36:04;19.55;;;10.35;;
64854;SDS011;51321;50.428;8.378;2023-02-15T05:38:49;14.82;;;8.90;;
64854;SDS011;51321;50.428;8.378;2023-02-15T05:41:33;17.20;;;10.30;;
64854;SDS011;51321;50.428;8.378;2023-02-15T05:44:23;23.73;;;13.10;;
64854;SDS011;51321;50.428;8.378;2023-02-15T05:47:04;19.58;;;11.20;;
64854;SDS011;51321;50.428;8.378;2023-02-15T05:49:51;23.15;;;13.55;;
64854;SDS011;51321;50.428;8.378;2023-02-15T05:52:36;19.33;;;11.50;;
64854;SDS011;51321;50.428;8.378;2023-02-15T05:55:21;20.23;;;11.93;;
64854;SDS011;51321;50.428;8.378;2023-02-15T05:58:02;20.90;;;11.75;;
64854;SDS011;51321;50.428;8.378;2023-02-15T06:00:51;20.30;;;12.45;;
64854;SDS011;51321;50.428;8.378;2023-02-15T06:03:33;21.37;;;12.80;;
64854;SDS011;51321;50.428;8.378;2023-02-15T06:06:14;19.50;;;11.23;;
64854;SDS011;51321;50.428;8.378;2023-02-15T06:08:58;22.88;;;12.32;;
64854;SDS011;51321;50.428;8.378;2023-02-15T06:14:39;20.77;;;10.93;;
64854;SDS011;51321;50.428;8.378;2023-02-15T06:17:20;18.90;;;10.85;;
64854;SDS011;51321;50.428;8.378;2023-02-15T06:20:02;18.95;;;11.93;;
64854;SDS011;51321;50.428;8.378;2023-02-15T06:22:47;22.02;;;12.20;;
64854;SDS011;51321;50.428;8.378;2023-02-15T06:25:30;22.13;;;13.80;;
64854;SDS011;51321;50.428;8.378;2023-02-15T06:28:12;21.75;;;13.85;;
64854;SDS011;51321;50.428;8.378;2023-02-15T06:30:59;23.15;;;12.75;;
64854;SDS011;51321;50.428;8.378;2023-02-15T06:33:42;20.70;;;12.50;;
64854;SDS011;51321;50.428;8.378;2023-02-15T06:36:23;21.50;;;11.68;;
64854;SDS011;51321;50.428;8.378;2023-02-15T06:39:05;20.77;;;11.10;;
64854;SDS011;51321;50.428;8.378;2023-02-15T06:41:49;22.15;;;11.90;;
64854;SDS011;51321;50.428;8.378;2023-02-15T06:44:30;36.38;;;24.08;;
64854;SDS011;51321;50.428;8.378;2023-02-15T06:47:13;32.13;;;22.05;;
64854;SDS011;51321;50.428;8.378;2023-02-15T06:49:57;27.73;;;14.27;;
64854;SDS011;51321;50.428;8.378;2023-02-15T06:52:38;25.02;;;14.50;;
64854;SDS011;51321;50.428;8.378;2023-02-15T06:55:21;25.98;;;16.00;;
64854;SDS011;51321;50.428;8.378;2023-02-15T06:58:02;25.25;;;15.35;;
64854;SDS011;51321;50.428;8.378;2023-02-15T07:00:43;25.08;;;14.35;;
64854;SDS011;51321;50.428;8.378;2023-02-15T07:03:26;28.15;;;15.10;;
64854;SDS011;51321;50.428;8.378;2023-02-15T07:06:08;23.67;;;14.55;;
64854;SDS011;51321;50.428;8.378;2023-02-15T07:08:49;24.02;;;13.45;;
64854;SDS011;51321;50.428;8.378;2023-02-15T07:11:30;22.95;;;13.65;;
64854;SDS011;51321;50.428;8.378;2023-02-15T07:14:29;28.15;;;15.57;;
64854;SDS011;51321;50.428;8.378;2023-02-15T07:17:12;30.88;;;16.35;;
64854;SDS011;51321;50.428;8.378;2023-02-15T07:19:55;26.42;;;15.25;;
64854;SDS011;51321;50.428;8.378;2023-02-15T07:22:37;25.48;;;15.20;;
64854;SDS011;51321;50.428;8.378;2023-02-15T07:25:18;24.83;;;15.23;;
64854;SDS011;51321;50.428;8.378;2023-02-15T07:27:59;25.38;;;15.95;;
64854;SDS011;51321;50.428;8.378;2023-02-15T07:30:43;27.75;;;15.85;;
64854;SDS011;51321;50.428;8.378;2023-02-15T07:33:25;28.60;;;15.13;;
64854;SDS011;51321;50.428;8.378;2023-02-15T07:36:18;26.60;;;15.00;;
64854;SDS011;51321;50.428;8.378;2023-02-15T07:39:02;27.23;;;15.15;;
64854;SDS011;51321;50.428;8.378;2023-02-15T07:41:44;31.00;;;17.38;;
64854;SDS011;51321;50.428;8.378;2023-02-15T07:44:26;29.20;;;15.37;;
64854;SDS011;51321;50.428;8.378;2023-02-15T07:47:08;27.00;;;15.52;;
64854;SDS011;51321;50.428;8.378;2023-02-15T07:49:51;25.58;;;15.52;;
64854;SDS011;51321;50.428;8.378;2023-02-15T07:52:34;32.20;;;17.00;;
64854;SDS011;51321;50.428;8.378;2023-02-15T07:55:15;29.10;;;15.95;;
64854;SDS011;51321;50.428;8.378;2023-02-15T07:57:58;28.55;;;16.52;;
64854;SDS011;51321;50.428;8.378;2023-02-15T08:00:39;33.60;;;17.25;;
64854;SDS011;51321;50.428;8.378;2023-02-15T08:03:34;30.25;;;17.20;;
64854;SDS011;51321;50.428;8.378;2023-02-15T08:06:15;32.45;;;17.33;;
64854;SDS011;51321;50.428;8.378;2023-02-15T08:09:02;30.63;;;16.50;;
64854;SDS011;51321;50.428;8.378;2023-02-15T08:11:46;31.00;;;16.85;;
64854;SDS011;51321;50.428;8.378;2023-02-15T08:14:30;35.03;;;16.90;;
64854;SDS011;51321;50.428;8.378;2023-02-15T08:17:12;30.70;;;17.00;;
64854;SDS011;51321;50.428;8.378;2023-02-15T08:19:55;31.65;;;16.90;;
64854;SDS011;51321;50.428;8.378;2023-02-15T08:22:36;30.83;;;17.75;;
64854;SDS011;51321;50.428;8.378;2023-02-15T08:25:22;32.65;;;18.33;;
64854;SDS011;51321;50.428;8.378;2023-02-15T08:28:06;31.50;;;16.27;;
64854;SDS011;51321;50.428;8.378;2023-02-15T08:30:48;30.15;;;16.75;;
64854;SDS011;51321;50.428;8.378;2023-02-15T08:33:36;34.33;;;18.45;;
64854;SDS011;51321;50.428;8.378;2023-02-15T08:36:22;33.25;;;17.73;;
64854;SDS011;51321;50.428;8.378;2023-02-15T08:39:06;32.58;;;18.67;;
64854;SDS011;51321;50.428;8.378;2023-02-15T08:41:52;30.52;;;17.27;;
64854;SDS011;51321;50.428;8.378;2023-02-15T08:44:33;30.90;;;17.85;;
64854;SDS011;51321;50.428;8.378;2023-02-15T08:47:15;31.17;;;16.77;;
64854;SDS011;51321;50.428;8.378;2023-02-15T08:49:57;35.25;;;18.63;;
64854;SDS011;51321;50.428;8.378;2023-02-15T08:52:40;30.80;;;17.60;;
64854;SDS011;51321;50.428;8.378;2023-02-15T08:55:21;33.08;;;18.58;;
64854;SDS011;51321;50.428;8.378;2023-02-15T08:58:04;37.92;;;18.45;;
64854;SDS011;51321;50.428;8.378;2023-02-15T09:00:45;30.27;;;17.63;;
64854;SDS011;51321;50.428;8.378;2023-02-15T09:03:27;33.53;;;18.30;;
64854;SDS011;51321;50.428;8.378;2023-02-15T09:06:09;33.30;;;18.73;;
64854;SDS011;51321;50.428;8.378;2023-02-15T09:08:50;38.63;;;20.48;;
64854;SDS011;51321;50.428;8.378;2023-02-15T09:11:36;32.55;;;18.60;;
64854;SDS011;51321;50.428;8.378;2023-02-15T09:14:20;34.65;;;18.55;;
64854;SDS011;51321;50.428;8.378;2023-02-15T09:17:03;30.70;;;17.48;;
64854;SDS011;51321;50.428;8.378;2023-02-15T09:19:44;34.83;;;18.38;;
64854;SDS011;51321;50.428;8.378;2023-02-15T09:22:26;34.33;;;19.00;;
64854;SDS011;51321;50.428;8.378;2023-02-15T09:25:08;34.67;;;17.80;;
64854;SDS011;51321;50.428;8.378;2023-02-15T09:27:52;33.08;;;17.20;;
64854;SDS011;51321;50.428;8.378;2023-02-15T09:30:36;33.63;;;18.13;;
64854;SDS011;51321;50.428;8.378;2023-02-15T09:33:17;36.53;;;19.77;;
64854;SDS011;51321;50.428;8.378;2023-02-15T09:35:58;31.08;;;17.98;;
64854;SDS011;51321;50.428;8.378;2023-02-15T09:38:40;39.20;;;19.65;;
64854;SDS011;51321;50.428;8.378;2023-02-15T09:41:28;34.75;;;19.27;;
64854;SDS011;51321;50.428;8.378;2023-02-15T09:44:43;33.45;;;17.92;;
64854;SDS011;51321;50.428;8.378;2023-02-15T09:47:52;32.83;;;18.85;;
64854;SDS011;51321;50.428;8.378;2023-02-15T09:50:48;30.85;;;17.98;;
64854;SDS011;51321;50.428;8.378;2023-02-15T09:53:45;32.60;;;18.23;;
64854;SDS011;51321;50.428;8.378;2023-02-15T09:56:42;31.20;;;19.15;;
64854;SDS011;51321;50.428;8.378;2023-02-15T09:59:32;32.83;;;19.33;;
64854;SDS011;51321;50.428;8.378;2023-02-15T10:02:27;29.73;;;17.10;;
64854;SDS011;51321;50.428;8.378;2023-02-15T10:05:27;34.30;;;20.27;;
64854;SDS011;51321;50.428;8.378;2023-02-15T10:08:29;36.08;;;20.75;;
64854;SDS011;51321;50.428;8.378;2023-02-15T10:11:29;34.13;;;19.77;;
64854;SDS011;51321;50.428;8.378;2023-02-15T10:17:41;34.45;;;19.55;;
64854;SDS011;51321;50.428;8.378;2023-02-15T10:20:40;34.63;;;19.92;;
64854;SDS011;51321;50.428;8.378;2023-02-15T10:23:39;36.25;;;19.85;;
64854;SDS011;51321;50.428;8.378;2023-02-15T10:26:33;32.80;;;17.83;;
64854;SDS011;51321;50.428;8.378;2023-02-15T10:29:22;29.55;;;18.10;;
64854;SDS011;51321;50.428;8.378;2023-02-15T10:32:13;32.85;;;19.25;;
64854;SDS011;51321;50.428;8.378;2023-02-15T10:35:04;32.20;;;18.55;;
64854;SDS011;51321;50.428;8.378;2023-02-15T10:37:57;32.42;;;17.67;;
64854;SDS011;51321;50.428;8.378;2023-02-15T10:41:04;28.77;;;18.60;;
64854;SDS011;51321;50.428;8.378;2023-02-15T10:44:02;31.77;;;19.75;;
64854;SDS011;51321;50.428;8.378;2023-02-15T10:50:15;32.53;;;17.73;;
64854;SDS011;51321;50.428;8.378;2023-02-15T10:53:12;27.98;;;17.42;;
64854;SDS011;51321;50.428;8.378;2023-02-15T10:56:03;28.13;;;17.48;;
64854;SDS011;51321;50.428;8.378;2023-02-15T10:59:05;27.40;;;17.10;;
64854;SDS011;51321;50.428;8.378;2023-02-15T11:02:02;28.80;;;17.02;;
64854;SDS011;51321;50.428;8.378;2023-02-15T11:04:57;30.63;;;17.27;;
64854;SDS011;51321;50.428;8.378;2023-02-15T11:07:48;25.27;;;16.52;;
64854;SDS011;51321;50.428;8.378;2023-02-15T11:10:35;28.48;;;16.95;;
64854;SDS011;51321;50.428;8.378;2023-02-15T11:13:19;26.55;;;16.98;;
64854;SDS011;51321;50.428;8.378;2023-02-15T11:16:04;27.52;;;17.50;;
64854;SDS011;51321;50.428;8.378;2023-02-15T11:18:53;28.25;;;18.02;;
64854;SDS011;51321;50.428;8.378;2023-02-15T11:21:40;31.58;;;17.58;;
64854;SDS011;51321;50.428;8.378;2023-02-15T11:24:26;28.45;;;17.65;;
64854;SDS011;51321;50.428;8.378;2023-02-15T11:27:22;29.67;;;19.25;;
64854;SDS011;51321;50.428;8.378;2023-02-15T11:30:09;26.70;;;15.68;;
64854;SDS011;51321;50.428;8.378;2023-02-15T11:33:00;25.27;;;15.85;;
64854;SDS011;51321;50.428;8.378;2023-02-15T11:35:48;28.65;;;17.35;;
64854;SDS011;51321;50.428;8.378;2023-02-15T11:38:35;28.13;;;17.42;;
64854;SDS011;51321;50.428;8.378;2023-02-15T11:41:27;26.10;;;16.63;;
64854;SDS011;51321;50.428;8.378;2023-02-15T11:44:17;22.95;;;14.07;;
64854;SDS011;51321;50.428;8.378;2023-02-15T11:47:07;26.52;;;14.70;;
64854;SDS011;51321;50.428;8.378;2023-02-15T11:49:52;23.63;;;15.35;;
64854;SDS011;51321;50.428;8.378;2023-02-15T11:52:34;25.42;;;16.90;;
64854;SDS011;51321;50.428;8.378;2023-02-15T11:55:18;24.20;;;15.45;;
64854;SDS011;51321;50.428;8.378;2023-02-15T11:58:02;24.25;;;15.40;;
64854;SDS011;51321;50.428;8.378;2023-02-15T12:00:55;23.90;;;15.90;;
64854;SDS011;51321;50.428;8.378;2023-02-15T12:03:46;25.98;;;14.93;;
64854;SDS011;51321;50.428;8.378;2023-02-15T12:06:32;21.70;;;14.40;;
64854;SDS011;51321;50.428;8.378;2023-02-15T12:09:17;23.90;;;15.57;;
64854;SDS011;51321;50.428;8.378;2023-02-15T12:15:06;18.80;;;13.65;;
64854;SDS011;51321;50.428;8.378;2023-02-15T12:20:33;23.33;;;14.02;;
64854;SDS011;51321;50.428;8.378;2023-02-15T12:25:58;22.75;;;14.35;;
64854;SDS011;51321;50.428;8.378;2023-02-15T12:28:41;18.92;;;13.45;;
64854;SDS011;51321;50.428;8.378;2023-02-15T12:31:24;20.60;;;13.95;;
64854;SDS011;51321;50.428;8.378;2023-02-15T12:34:11;21.48;;;12.82;;
64854;SDS011;51321;50.428;8.378;2023-02-15T12:37:00;19.08;;;13.07;;
64854;SDS011;51321;50.428;8.378;2023-02-15T12:39:53;20.50;;;13.90;;
64854;SDS011;51321;50.428;8.378;2023-02-15T12:42:58;20.08;;;13.85;;
64854;SDS011;51321;50.428;8.378;2023-02-15T12:45:47;19.50;;;13.43;;
64854;SDS011;51321;50.428;8.378;2023-02-15T12:48:29;16.73;;;12.38;;
64854;SDS011;51321;50.428;8.378;2023-02-15T12:51:13;18.33;;;13.10;;
64854;SDS011;51321;50.428;8.378;2023-02-15T12:53:55;17.60;;;11.85;;
64854;SDS011;51321;50.428;8.378;2023-02-15T12:56:39;19.50;;;13.73;;
64854;SDS011;51321;50.428;8.378;2023-02-15T12:59:21;20.77;;;15.05;;
64854;SDS011;51321;50.428;8.378;2023-02-15T13:02:03;20.33;;;14.65;;
64854;SDS011;51321;50.428;8.378;2023-02-15T13:04:55;20.52;;;14.73;;
64854;SDS011;51321;50.428;8.378;2023-02-15T13:07:47;24.85;;;15.57;;
64854;SDS011;51321;50.428;8.378;2023-02-15T13:10:33;19.83;;;14.20;;
64854;SDS011;51321;50.428;8.378;2023-02-15T13:13:21;16.73;;;12.68;;
64854;SDS011;51321;50.428;8.378;2023-02-15T13:16:07;20.20;;;13.40;;
64854;SDS011;51321;50.428;8.378;2023-02-15T13:18:51;18.23;;;13.85;;
64854;SDS011;51321;50.428;8.378;2023-02-15T13:21:36;25.65;;;16.63;;
64854;SDS011;51321;50.428;8.378;2023-02-15T13:24:22;21.48;;;16.58;;
64854;SDS011;51321;50.428;8.378;2023-02-15T13:27:10;23.70;;;16.73;;
64854;SDS011;51321;50.428;8.378;2023-02-15T13:29:58;23.80;;;16.17;;
64854;SDS011;51321;50.428;8.378;2023-02-15T13:32:44;23.45;;;15.52;;
64854;SDS011;51321;50.428;8.378;2023-02-15T13:35:31;22.60;;;15.32;;
64854;SDS011;51321;50.428;8.378;2023-02-15T13:38:29;20.02;;;15.07;;
64854;SDS011;51321;50.428;8.378;2023-02-15T13:41:32;22.70;;;16.05;;
64854;SDS011;51321;50.428;8.378;2023-02-15T13:44:21;23.08;;;15.55;;
64854;SDS011;51321;50.428;8.378;2023-02-15T13:47:21;23.63;;;14.55;;
64854;SDS011;51321;50.428;8.378;2023-02-15T13:50:14;21.05;;;15.00;;
64854;SDS011;51321;50.428;8.378;2023-02-15T13:53:17;17.30;;;12.48;;
64854;SDS011;51321;50.428;8.378;2023-02-15T13:56:15;16.95;;;13.05;;
64854;SDS011;51321;50.428;8.378;2023-02-15T14:02:30;20.33;;;14.27;;
64854;SDS011;51321;50.428;8.378;2023-02-15T14:05:27;17.38;;;13.07;;
64854;SDS011;51321;50.428;8.378;2023-02-15T14:08:18;15.65;;;11.63;;
64854;SDS011;51321;50.428;8.378;2023-02-15T14:11:12;17.27;;;12.63;;
64854;SDS011;51321;50.428;8.378;2023-02-15T14:14:04;15.88;;;11.98;;
64854;SDS011;51321;50.428;8.378;2023-02-15T14:20:07;15.85;;;10.20;;
64854;SDS011;51321;50.428;8.378;2023-02-15T14:23:00;11.50;;;8.73;;
64854;SDS011;51321;50.428;8.378;2023-02-15T14:25:53;11.10;;;9.32;;
64854;SDS011;51321;50.428;8.378;2023-02-15T14:28:41;10.13;;;8.48;;
64854;SDS011;51321;50.428;8.378;2023-02-15T14:31:28;10.57;;;8.55;;
64854;SDS011;51321;50.428;8.378;2023-02-15T14:34:19;11.00;;;8.50;;
64854;SDS011;51321;50.428;8.378;2023-02-15T14:37:03;10.15;;;8.40;;
64854;SDS011;51321;50.428;8.378;2023-02-15T14:39:47;13.75;;;9.95;;
64854;SDS011;51321;50.428;8.378;2023-02-15T14:42:55;13.88;;;10.43;;
64854;SDS011;51321;50.428;8.378;2023-02-15T14:45:55;20.60;;;15.00;;
64854;SDS011;51321;50.428;8.378;2023-02-15T14:48:41;21.92;;;15.70;;
64854;SDS011;51321;50.428;8.378;2023-02-15T14:57:40;23.67;;;16.80;;
64854;SDS011;51321;50.428;8.378;2023-02-15T15:00:38;23.70;;;17.23;;
64854;SDS011;51321;50.428;8.378;2023-02-15T15:06:03;26.48;;;17.33;;
64854;SDS011;51321;50.428;8.378;2023-02-15T15:08:47;21.23;;;16.15;;
64854;SDS011;51321;50.428;8.378;2023-02-15T15:11:39;25.95;;;17.77;;
64854;SDS011;51321;50.428;8.378;2023-02-15T15:14:37;27.77;;;19.73;;
64854;SDS011;51321;50.428;8.378;2023-02-15T15:23:43;24.77;;;17.38;;
64854;SDS011;51321;50.428;8.378;2023-02-15T15:26:34;27.47;;;18.70;;
64854;SDS011;51321;50.428;8.378;2023-02-15T15:29:38;26.98;;;18.25;;
64854;SDS011;51321;50.428;8.378;2023-02-15T15:32:29;29.65;;;19.85;;
64854;SDS011;51321;50.428;8.378;2023-02-15T15:35:15;29.90;;;19.38;;
64854;SDS011;51321;50.428;8.378;2023-02-15T15:38:20;27.08;;;18.23;;
64854;SDS011;51321;50.428;8.378;2023-02-15T15:41:17;33.45;;;18.15;;
64854;SDS011;51321;50.428;8.378;2023-02-15T15:47:40;23.58;;;16.83;;
64854;SDS011;51321;50.428;8.378;2023-02-15T15:50:39;26.60;;;19.00;;
64854;SDS011;51321;50.428;8.378;2023-02-15T15:53:22;28.05;;;20.17;;
64854;SDS011;51321;50.428;8.378;2023-02-15T15:56:06;31.02;;;20.10;;
64854;SDS011;51321;50.428;8.378;2023-02-15T15:58:53;28.23;;;18.55;;
64854;SDS011;51321;50.428;8.378;2023-02-15T16:01:39;32.78;;;20.25;;
64854;SDS011;51321;50.428;8.378;2023-02-15T16:04:24;32.92;;;22.13;;
64854;SDS011;51321;50.428;8.378;2023-02-15T16:07:20;29.95;;;20.67;;
64854;SDS011;51321;50.428;8.378;2023-02-15T16:10:05;26.33;;;18.38;;
64854;SDS011;51321;50.428;8.378;2023-02-15T16:13:00;32.28;;;19.25;;
64854;SDS011;51321;50.428;8.378;2023-02-15T16:15:45;32.60;;;20.13;;
64854;SDS011;51321;50.428;8.378;2023-02-15T16:18:32;32.13;;;19.83;;
64854;SDS011;51321;50.428;8.378;2023-02-15T16:21:18;29.95;;;18.48;;
64854;SDS011;51321;50.428;8.378;2023-02-15T16:24:14;31.65;;;20.13;;
64854;SDS011;51321;50.428;8.378;2023-02-15T16:27:14;30.73;;;19.65;;
64854;SDS011;51321;50.428;8.378;2023-02-15T16:30:23;34.25;;;21.73;;
64854;SDS011;51321;50.428;8.378;2023-02-15T16:33:08;32.08;;;18.92;;
64854;SDS011;51321;50.428;8.378;2023-02-15T16:36:00;32.95;;;20.92;;
64854;SDS011;51321;50.428;8.378;2023-02-15T16:39:06;32.42;;;19.30;;
64854;SDS011;51321;50.428;8.378;2023-02-15T16:41:56;32.33;;;20.15;;
64854;SDS011;51321;50.428;8.378;2023-02-15T16:44:42;36.05;;;20.20;;
64854;SDS011;51321;50.428;8.378;2023-02-15T16:47:26;39.17;;;23.42;;
64854;SDS011;51321;50.428;8.378;2023-02-15T16:50:15;32.60;;;19.83;;
64854;SDS011;51321;50.428;8.378;2023-02-15T16:53:01;30.70;;;20.58;;
64854;SDS011;51321;50.428;8.378;2023-02-15T16:55:44;31.23;;;19.23;;
64854;SDS011;51321;50.428;8.378;2023-02-15T16:58:31;33.15;;;20.70;;
64854;SDS011;51321;50.428;8.378;2023-02-15T17:01:19;30.02;;;20.77;;
64854;SDS011;51321;50.428;8.378;2023-02-15T17:04:11;27.73;;;18.13;;
64854;SDS011;51321;50.428;8.378;2023-02-15T17:06:58;27.10;;;16.52;;
64854;SDS011;51321;50.428;8.378;2023-02-15T17:12:43;26.08;;;16.50;;
64854;SDS011;51321;50.428;8.378;2023-02-15T17:15:27;22.88;;;14.50;;
64854;SDS011;51321;50.428;8.378;2023-02-15T17:18:11;22.08;;;14.57;;
64854;SDS011;51321;50.428;8.378;2023-02-15T17:20:59;21.98;;;14.77;;
64854;SDS011;51321;50.428;8.378;2023-02-15T17:23:49;26.67;;;16.52;;
64854;SDS011;51321;50.428;8.378;2023-02-15T17:26:34;25.48;;;15.57;;
64854;SDS011;51321;50.428;8.378;2023-02-15T17:29:19;24.00;;;16.40;;
64854;SDS011;51321;50.428;8.378;2023-02-15T17:32:04;23.83;;;16.30;;
64854;SDS011;51321;50.428;8.378;2023-02-15T17:35:06;24.77;;;15.27;;